Time;durP1;ratioP1;P1;durP2;ratioP2;P2;SDS_P1;SDS_P2;PMS_P1;PMS_P2;Temp;Humidity;BMP_temperature;BMP_pressure;BME280_temperature;BME280_humidity;BME280_pressure;Samples;Min_cycle;Max_cycle;Signal;HPM_P1;HPM_P2
2023/10/07 00:01:50;;;;;;;;;24.60;21.00;;;;;13.31;44.72;100248.59;5126471;27;8862;-73
2023/10/07 00:04:20;;;;;;;;;26.60;23.20;;;;;13.33;44.55;100254.72;5128309;27;8857;-73
2023/10/07 00:06:49;;;;;;;;;28.00;26.40;;;;;13.24;45.22;100244.34;5128836;27;8880;-76
2023/10/07 00:09:22;;;;;;;;;26.20;25.20;;;;;13.35;45.35;100250.28;5076058;27;8841;-74
2023/10/07 00:11:51;;;;;;;;;27.00;26.00;;;;;13.37;45.36;100250.25;5129156;27;8853;-71
2023/10/07 00:14:28;;;;;;;;;25.80;25.20;;;;;13.45;45.26;100241.28;5132784;27;9104;-74
2023/10/07 00:16:57;;;;;;;;;24.80;23.60;;;;;13.45;45.10;100233.34;5130742;27;8857;-76
2023/10/07 00:19:28;;;;;;;;;28.60;25.80;;;;;13.43;45.13;100224.59;5131879;27;8857;-72
2023/10/07 00:21:59;;;;;;;;;27.00;25.00;;;;;13.20;45.88;100224.19;5132138;27;8841;-72
2023/10/07 00:24:34;;;;;;;;;21.60;20.80;;;;;13.24;45.67;100210.03;5132842;27;8841;-74
2023/10/07 00:27:05;;;;;;;;;24.60;23.20;;;;;13.37;45.77;100208.00;5132398;27;8853;-72
2023/10/07 00:29:52;;;;;;;;;25.40;25.40;;;;;13.40;44.76;100208.81;5131310;27;8848;-72
2023/10/07 00:32:27;;;;;;;;;24.20;22.80;;;;;13.34;45.10;100205.44;5112181;27;8947;-72
2023/10/07 00:34:59;;;;;;;;;22.60;22.60;;;;;13.30;44.93;100207.28;5112572;27;8857;-73
2023/10/07 00:37:30;;;;;;;;;25.40;24.60;;;;;13.00;45.87;100196.47;5132100;27;8853;-76
2023/10/07 00:40:09;;;;;;;;;22.60;21.20;;;;;13.15;45.38;100210.22;5132271;27;8972;-72
2023/10/07 00:42:41;;;;;;;;;26.40;23.80;;;;;13.16;45.50;100198.78;5114134;27;8841;-73
2023/10/07 00:45:14;;;;;;;;;23.20;21.40;;;;;13.11;45.43;100198.88;5113779;27;8937;-72
2023/10/07 00:47:45;;;;;;;;;28.40;25.40;;;;;13.17;45.91;100196.09;5112473;27;8861;-73
2023/10/07 00:50:15;;;;;;;;;26.60;23.80;;;;;13.20;45.92;100197.81;5092308;28;8871;-72
2023/10/07 00:52:55;;;;;;;;;27.20;25.00;;;;;13.19;45.88;100196.94;5042898;28;8883;-72
2023/10/07 00:55:29;;;;;;;;;26.40;24.80;;;;;13.17;45.84;100196.09;5038803;28;8925;-72
2023/10/07 00:58:13;;;;;;;;;26.40;25.60;;;;;13.20;46.06;100195.16;5123962;27;8874;-74
2023/10/07 01:00:47;;;;;;;;;23.80;21.40;;;;;13.26;46.46;100190.63;5123511;27;8944;-75
2023/10/07 01:06:12;;;;;;;;;24.00;24.00;;;;;13.19;46.74;100193.44;5097362;28;8845;-74
2023/10/07 01:08:49;;;;;;;;;25.80;25.00;;;;;13.03;46.64;100183.19;5109747;28;8849;-73
2023/10/07 01:11:23;;;;;;;;;25.20;24.20;;;;;12.90;46.88;100176.41;5111321;28;8840;-72
2023/10/07 01:13:56;;;;;;;;;30.40;25.80;;;;;12.96;46.76;100186.88;5110966;28;8860;-72
2023/10/07 01:16:32;;;;;;;;;26.20;24.00;;;;;12.69;47.60;100175.94;5110845;28;8837;-74
2023/10/07 01:19:18;;;;;;;;;26.80;25.00;;;;;12.70;47.51;100175.03;5109720;27;8833;-71
2023/10/07 01:21:54;;;;;;;;;33.00;31.20;;;;;12.65;47.54;100176.00;5109759;28;8910;-75
2023/10/07 01:24:43;;;;;;;;;30.20;29.20;;;;;12.67;47.61;100169.81;5109117;28;8841;-74
2023/10/07 01:27:21;;;;;;;;;28.00;26.20;;;;;12.54;47.85;100166.56;5126319;27;8837;-72
2023/10/07 01:29:59;;;;;;;;;34.60;28.60;;;;;12.45;47.78;100169.38;5110447;28;8857;-72
2023/10/07 01:32:32;;;;;;;;;26.40;25.80;;;;;12.48;47.82;100171.06;5109558;28;9044;-76
2023/10/07 01:35:05;;;;;;;;;24.40;23.20;;;;;12.50;47.74;100174.53;5107856;28;8864;-73
2023/10/07 01:37:43;;;;;;;;;30.20;30.20;;;;;12.49;48.05;100163.13;5092109;28;9702;-75
2023/10/07 01:40:17;;;;;;;;;27.60;25.60;;;;;12.54;47.89;100168.31;5109282;28;8880;-73
2023/10/07 01:42:46;;;;;;;;;26.20;24.40;;;;;12.52;47.99;100172.75;5092339;28;9616;-74
2023/10/07 01:45:22;;;;;;;;;26.40;24.00;;;;;12.60;47.70;100176.13;5110547;28;8893;-75
2023/10/07 01:47:55;;;;;;;;;27.40;20.80;;;;;12.67;47.71;100179.50;5110435;28;8875;-74
2023/10/07 01:50:25;;;;;;;;;25.40;21.60;;;;;12.75;47.38;100180.22;5089673;28;8899;-74
2023/10/07 01:52:56;;;;;;;;;27.60;25.40;;;;;12.77;47.18;100173.16;5109232;28;8949;-74
2023/10/07 01:55:27;;;;;;;;;28.60;26.00;;;;;12.70;47.64;100172.41;5108706;28;8852;-74
2023/10/07 01:57:57;;;;;;;;;27.40;26.60;;;;;12.63;48.14;100168.13;5108976;28;8852;-74
2023/10/07 02:00:44;;;;;;;;;24.40;23.40;;;;;12.72;47.74;100175.00;5108897;28;8853;-72
2023/10/07 02:03:16;;;;;;;;;26.60;26.60;;;;;12.74;47.44;100160.00;5091479;28;8869;-73
2023/10/07 02:05:48;;;;;;;;;28.20;26.20;;;;;12.78;47.74;100160.81;5107923;28;8849;-73
2023/10/07 02:08:22;;;;;;;;;30.60;25.80;;;;;12.81;47.33;100160.78;5108601;28;8833;-73
2023/10/07 02:10:56;;;;;;;;;25.60;24.00;;;;;12.83;47.50;100158.97;5109795;28;8884;-75
2023/10/07 02:13:27;;;;;;;;;27.80;24.40;;;;;12.75;47.15;100151.22;5109767;28;8849;-74
2023/10/07 02:15:57;;;;;;;;;28.00;26.00;;;;;12.72;47.07;100156.53;5073812;28;8873;-74
2023/10/07 02:18:27;;;;;;;;;27.80;26.80;;;;;12.73;47.43;100160.91;5074384;28;8849;-75
2023/10/07 02:21:07;;;;;;;;;26.20;25.80;;;;;12.72;47.46;100159.19;5086009;28;8846;-73
2023/10/07 02:23:40;;;;;;;;;24.40;23.00;;;;;12.68;47.46;100153.09;5089308;28;8945;-72
2023/10/07 02:26:16;;;;;;;;;24.80;24.00;;;;;12.67;47.13;100150.47;5087642;28;8879;-72
2023/10/07 02:28:46;;;;;;;;;25.00;24.20;;;;;12.61;47.63;100162.03;5106021;28;8859;-73
2023/10/07 02:31:18;;;;;;;;;27.40;25.00;;;;;12.51;47.88;100155.19;5110001;28;8975;-75
2023/10/07 02:33:51;;;;;;;;;25.20;24.20;;;;;12.50;47.70;100156.97;5108298;28;8833;-76
2023/10/07 02:36:32;;;;;;;;;25.00;22.80;;;;;12.52;47.75;100159.56;5106597;27;8957;-75
2023/10/07 02:39:18;;;;;;;;;24.00;22.20;;;;;12.48;47.71;100169.28;5109953;28;8849;-74
2023/10/07 02:41:49;;;;;;;;;26.20;25.40;;;;;12.51;48.00;100158.69;5108037;28;8921;-72
2023/10/07 02:44:26;;;;;;;;;28.80;26.80;;;;;12.57;47.70;100170.91;5108178;28;8852;-74
2023/10/07 02:46:54;;;;;;;;;28.00;27.60;;;;;12.61;47.67;100169.06;5109164;28;8872;-73
2023/10/07 02:49:26;;;;;;;;;29.60;26.80;;;;;12.63;47.43;100170.78;5107886;28;8941;-74
2023/10/07 02:51:56;;;;;;;;;21.40;19.80;;;;;12.63;47.76;100168.13;5107589;28;8979;-73
2023/10/07 02:54:32;;;;;;;;;25.40;23.80;;;;;12.62;47.50;100174.31;5099213;28;8867;-73
2023/10/07 02:57:08;;;;;;;;;25.20;23.20;;;;;12.50;47.80;100177.19;5055756;28;8847;-73
2023/10/07 02:59:42;;;;;;;;;29.40;25.80;;;;;12.24;48.42;100178.53;5088569;28;8851;-71
2023/10/07 03:02:18;;;;;;;;;22.00;22.00;;;;;12.30;48.62;100178.41;5088390;28;8844;-73
2023/10/07 03:05:14;;;;;;;;;21.20;20.40;;;;;12.40;48.11;100181.75;5087348;28;8835;-74
2023/10/07 03:07:49;;;;;;;;;25.40;24.00;;;;;12.40;48.16;100179.13;5088265;28;8855;-74
2023/10/07 03:10:29;;;;;;;;;27.40;25.60;;;;;12.39;47.76;100184.41;5087149;28;8828;-72
2023/10/07 03:13:01;;;;;;;;;18.60;17.60;;;;;12.44;47.84;100183.44;5085850;28;8848;-73
2023/10/07 03:15:41;;;;;;;;;24.40;23.00;;;;;12.43;47.95;100179.06;5088332;28;8930;-73
2023/10/07 03:18:23;;;;;;;;;26.80;25.80;;;;;12.46;47.73;100179.00;5088045;28;8893;-73
2023/10/07 03:21:06;;;;;;;;;27.60;25.80;;;;;12.48;47.91;100176.34;5086863;28;8828;-73
2023/10/07 03:23:37;;;;;;;;;25.80;25.80;;;;;12.50;47.38;100174.53;5086815;28;8856;-72
2023/10/07 03:26:06;;;;;;;;;27.60;25.40;;;;;12.48;47.59;100168.44;5070470;28;9593;-74
2023/10/07 03:28:46;;;;;;;;;30.40;29.60;;;;;12.50;47.69;100166.63;5101157;28;8947;-73
2023/10/07 03:31:19;;;;;;;;;28.20;27.20;;;;;12.50;47.47;100161.34;5088326;28;8878;-73
2023/10/07 03:33:52;;;;;;;;;28.20;25.80;;;;;12.47;47.78;100162.28;5088262;28;9593;-74
2023/10/07 03:36:41;;;;;;;;;25.80;23.60;;;;;12.48;47.47;100163.16;5088038;28;8851;-73
2023/10/07 03:39:23;;;;;;;;;28.80;27.00;;;;;12.45;47.16;100164.09;5087963;28;8986;-72
2023/10/07 03:41:59;;;;;;;;;25.20;23.20;;;;;12.49;47.14;100162.28;5088483;28;8893;-74
2023/10/07 03:44:31;;;;;;;;;29.20;25.60;;;;;12.50;47.23;100172.78;5088042;28;8844;-72
2023/10/07 03:47:00;;;;;;;;;34.40;29.20;;;;;12.49;47.10;100171.03;5087263;28;8865;-73
2023/10/07 03:49:34;;;;;;;;;55.75;44.25;;;;;12.46;46.93;100165.81;5092542;28;8839;-73
2023/10/07 03:52:12;;;;;;;;;17.80;17.80;;;;;12.47;46.91;100164.94;5090931;28;8859;-74
2023/10/07 03:54:41;;;;;;;;;28.40;27.60;;;;;12.45;47.50;100165.88;5112822;27;8872;-72
2023/10/07 03:57:11;;;;;;;;;24.60;22.20;;;;;12.33;47.54;100166.94;5133178;27;9555;-73
2023/10/07 03:59:42;;;;;;;;;28.80;27.80;;;;;12.26;48.25;100168.84;5130624;27;8857;-73
2023/10/07 04:05:09;;;;;;;;;25.80;24.40;;;;;12.20;48.11;100158.41;5114667;27;8849;-72
2023/10/07 04:07:38;;;;;;;;;29.40;28.60;;;;;12.23;48.33;100160.13;5132827;27;8846;-75
2023/10/07 04:10:21;;;;;;;;;51.00;42.00;;;;;12.20;48.37;100165.44;5132408;27;9694;-73
2023/10/07 04:12:56;;;;;;;;;30.80;27.80;;;;;12.12;48.45;100160.28;5131966;27;9586;-71
2023/10/07 04:15:29;;;;;;;;;29.80;28.60;;;;;12.18;48.63;100159.31;5132364;27;8850;-74
2023/10/07 04:18:00;;;;;;;;;26.20;24.20;;;;;12.19;48.75;100161.94;5132197;27;9586;-74
2023/10/07 04:20:50;;;;;;;;;24.60;23.60;;;;;12.21;48.25;100164.53;5132530;27;8857;-72
2023/10/07 04:23:24;;;;;;;;;45.75;38.25;;;;;12.22;47.78;100166.25;5132624;27;8840;-72
2023/10/07 04:26:04;;;;;;;;;30.60;29.60;;;;;12.20;47.92;100162.78;5132653;27;8837;-72
2023/10/07 04:28:34;;;;;;;;;44.25;38.00;;;;;12.21;48.29;100160.13;5077282;27;8918;-73
2023/10/07 04:31:10;;;;;;;;;52.75;42.00;;;;;12.21;48.64;100164.53;5113970;27;8969;-73
2023/10/07 04:33:47;;;;;;;;;36.25;34.25;;;;;12.16;48.85;100159.34;5132382;27;8838;-71
2023/10/07 04:36:31;;;;;;;;;31.40;30.60;;;;;12.14;48.30;100156.75;5132047;27;8826;-71
2023/10/07 04:39:17;;;;;;;;;29.00;29.00;;;;;12.11;48.38;100150.66;5132541;27;8879;-72
2023/10/07 04:41:56;;;;;;;;;27.40;26.00;;;;;12.08;48.31;100148.94;5131268;27;8857;-73
2023/10/07 04:45:15;;;;;;;;;25.60;25.20;;;;;12.11;48.77;100150.66;5132372;27;8880;-73
2023/10/07 04:47:29;;;;;;;;;30.20;28.80;;;;;12.10;48.77;100149.78;5132253;27;8937;-74
2023/10/07 04:50:05;;;;;;;;;31.20;29.80;;;;;12.06;48.53;100140.19;5114073;27;8833;-73
2023/10/07 04:52:40;;;;;;;;;24.40;24.20;;;;;11.93;48.56;100141.28;5132646;27;8855;-72
2023/10/07 04:55:13;;;;;;;;;26.00;24.60;;;;;11.85;48.36;100143.19;5132411;27;8832;-75
2023/10/07 04:57:44;;;;;;;;;29.20;27.60;;;;;11.85;48.62;100146.69;5111545;27;8830;-73
2023/10/07 05:00:27;;;;;;;;;25.20;23.60;;;;;11.89;48.20;100152.78;5113754;27;9017;-73
2023/10/07 05:02:59;;;;;;;;;26.60;26.60;;;;;11.92;48.25;100152.75;5131743;27;8833;-74
2023/10/07 05:05:30;;;;;;;;;29.20;28.80;;;;;11.91;48.23;100153.63;5078878;27;8846;-74
2023/10/07 05:08:08;;;;;;;;;32.60;31.80;;;;;11.99;48.30;100156.13;5131538;27;8830;-74
2023/10/07 05:10:39;;;;;;;;;31.80;29.60;;;;;12.06;48.16;100152.50;5081766;27;8861;-75
2023/10/07 05:13:09;;;;;;;;;38.00;33.00;;;;;12.13;48.44;100148.88;5125831;27;8845;-72
2023/10/07 05:15:41;;;;;;;;;34.00;33.00;;;;;12.17;48.57;100160.22;5125456;27;8929;-75
2023/10/07 05:18:12;;;;;;;;;33.00;31.60;;;;;12.24;48.43;100157.44;5104052;28;8871;-73
2023/10/07 05:20:42;;;;;;;;;32.60;28.20;;;;;12.23;47.79;100149.56;5110604;28;8871;-73
2023/10/07 05:23:14;;;;;;;;;38.20;32.80;;;;;12.29;47.48;100147.66;5133512;27;8879;-73
2023/10/07 05:25:48;;;;;;;;;39.40;33.00;;;;;12.37;47.66;100151.94;5126426;27;8864;-74
2023/10/07 05:28:20;;;;;;;;;33.80;30.20;;;;;12.42;47.55;100145.69;5127254;27;8893;-75
2023/10/07 05:30:52;;;;;;;;;38.80;35.00;;;;;12.48;47.72;100149.97;5128320;27;8858;-72
2023/10/07 05:33:25;;;;;;;;;42.50;36.00;;;;;12.58;47.77;100146.28;5126597;27;9614;-72
2023/10/07 05:35:59;;;;;;;;;39.00;35.00;;;;;12.69;47.21;100151.31;5121437;27;8895;-75
2023/10/07 05:38:28;;;;;;;;;36.50;34.25;;;;;12.72;47.17;100148.63;5073393;27;8888;-73
2023/10/07 05:41:00;;;;;;;;;37.00;34.50;;;;;12.82;47.18;100144.88;5126843;27;8852;-73
2023/10/07 05:43:31;;;;;;;;;31.80;29.80;;;;;12.87;47.01;100145.69;5119225;27;8872;-74
2023/10/07 05:46:01;;;;;;;;;35.00;32.20;;;;;12.97;46.83;100156.06;5124986;27;8857;-73
2023/10/07 05:48:31;;;;;;;;;31.40;31.40;;;;;13.07;46.63;100144.41;5126527;27;9114;-73
2023/10/07 05:51:00;;;;;;;;;37.00;33.80;;;;;13.13;45.86;100149.56;5075656;27;8882;-73
2023/10/07 05:53:30;;;;;;;;;32.00;30.80;;;;;13.20;45.63;100145.88;5125836;27;8860;-73
2023/10/07 05:55:59;;;;;;;;;29.20;27.80;;;;;13.26;45.66;100142.22;5126536;27;8879;-72
2023/10/07 05:58:28;;;;;;;;;31.60;30.60;;;;;13.31;45.53;100146.50;5119805;27;9640;-75
2023/10/07 06:00:58;;;;;;;;;24.80;24.00;;;;;13.38;45.47;100147.25;5128082;27;8825;-74
2023/10/07 06:03:28;;;;;;;;;33.00;32.00;;;;;13.41;44.86;100141.00;5125050;27;8857;-74
2023/10/07 06:05:59;;;;;;;;;35.40;30.80;;;;;13.54;45.11;100142.44;5066372;27;8867;-74
2023/10/07 06:08:28;;;;;;;;;31.00;27.20;;;;;13.64;44.81;100151.91;5124211;27;8841;-75
2023/10/07 06:10:59;;;;;;;;;32.20;30.40;;;;;13.73;44.75;100155.22;5079794;27;8888;-76
2023/10/07 06:13:29;;;;;;;;;33.60;31.80;;;;;13.81;44.50;100155.94;5127417;27;8853;-73
2023/10/07 06:15:59;;;;;;;;;32.00;29.80;;;;;13.94;44.35;100157.41;5126968;27;8821;-74
2023/10/07 06:18:31;;;;;;;;;30.40;30.00;;;;;14.09;44.22;100153.47;5106239;27;8868;-75
2023/10/07 06:21:17;;;;;;;;;25.60;24.00;;;;;14.21;43.86;100147.00;5117624;27;8834;-73
2023/10/07 06:23:47;;;;;;;;;31.40;31.20;;;;;14.29;43.88;100152.97;5129999;27;8925;-73
2023/10/07 06:26:16;;;;;;;;;35.40;31.40;;;;;14.43;43.51;100158.75;5130350;27;8860;-72
2023/10/07 06:28:48;;;;;;;;;31.80;30.60;;;;;14.55;43.43;100160.19;5126342;27;8853;-74
2023/10/07 06:31:31;;;;;;;;;53.50;42.75;;;;;14.45;42.70;100161.34;5073421;28;8888;-75
2023/10/07 06:34:03;;;;;;;;;34.60;30.80;;;;;14.68;42.80;100161.56;5057352;28;8823;-74
2023/10/07 06:36:33;;;;;;;;;31.80;28.00;;;;;14.65;42.30;100169.59;5057726;28;8898;-75
2023/10/07 06:39:05;;;;;;;;;26.00;23.00;;;;;14.76;42.57;100168.47;5106041;28;8897;-74
2023/10/07 06:41:36;;;;;;;;;25.00;20.60;;;;;14.93;42.01;100168.00;5106578;28;8828;-75
2023/10/07 06:44:08;;;;;;;;;26.80;26.80;;;;;15.07;41.80;100173.72;5086977;28;8851;-74
2023/10/07 06:46:41;;;;;;;;;28.60;27.60;;;;;15.18;42.00;100174.28;5105656;28;8840;-74
2023/10/07 06:49:16;;;;;;;;;25.80;23.00;;;;;15.13;40.97;100170.94;5105746;28;8889;-73
2023/10/07 06:51:53;;;;;;;;;22.80;20.60;;;;;15.00;41.16;100178.34;5104199;27;8891;-75
2023/10/07 06:54:23;;;;;;;;;24.20;20.80;;;;;15.06;41.04;100174.66;5076794;28;8995;-73
2023/10/07 06:56:54;;;;;;;;;20.20;20.20;;;;;15.13;40.96;100178.88;5106073;28;8843;-73
2023/10/07 06:59:27;;;;;;;;;23.40;23.00;;;;;14.56;42.03;100184.84;5057319;28;8856;-75
2023/10/07 07:02:05;;;;;;;;;23.00;22.20;;;;;14.79;41.87;100171.00;5094754;27;8817;-74
2023/10/07 07:04:35;;;;;;;;;18.00;14.80;;;;;14.84;41.90;100185.00;5129294;27;8841;-74
2023/10/07 07:07:10;;;;;;;;;25.40;23.00;;;;;14.84;41.80;100180.56;5137100;27;8881;-75
2023/10/07 07:09:51;;;;;;;;;22.80;22.80;;;;;14.77;41.94;100186.06;5059011;27;8872;-75
2023/10/07 07:12:22;;;;;;;;;27.00;26.40;;;;;14.88;42.12;100201.66;5124540;27;8802;-74
2023/10/07 07:14:52;;;;;;;;;22.40;21.20;;;;;15.03;41.68;100201.22;5129005;27;8962;-75
2023/10/07 07:17:35;;;;;;;;;25.00;23.20;;;;;14.66;42.21;100200.44;5076220;27;8846;-74
2023/10/07 07:22:58;;;;;;;;;27.20;26.20;;;;;14.25;43.67;100209.47;5128285;27;8833;-75
2023/10/07 07:25:39;;;;;;;;;19.00;19.00;;;;;14.71;42.74;100208.25;5073740;27;8844;-74
2023/10/07 07:28:13;;;;;;;;;21.60;21.60;;;;;14.84;42.01;100206.16;5081665;27;8869;-74
2023/10/07 07:30:43;;;;;;;;;22.60;22.00;;;;;14.15;43.39;100210.59;5081151;27;8935;-76
2023/10/07 07:33:13;;;;;;;;;20.20;19.20;;;;;13.91;43.87;100214.75;5136266;27;8837;-76
2023/10/07 07:35:44;;;;;;;;;21.20;19.20;;;;;14.01;44.21;100206.53;5145983;27;8851;-75
2023/10/07 07:38:26;;;;;;;;;25.20;24.60;;;;;14.43;43.34;100209.00;5084076;28;8845;-76
2023/10/07 07:41:05;;;;;;;;;28.80;27.60;;;;;14.75;42.79;100209.94;5067851;28;8856;-73
2023/10/07 07:43:37;;;;;;;;;21.00;20.60;;;;;14.82;42.50;100211.50;5082272;28;8950;-73
2023/10/07 07:48:50;;;;;;;;;26.60;25.40;;;;;15.32;41.80;100218.91;4983865;28;8884;-73
2023/10/07 07:51:21;;;;;;;;;24.40;23.80;;;;;15.72;40.97;100215.06;4983147;28;8864;-73
2023/10/07 07:53:51;;;;;;;;;25.00;23.80;;;;;15.95;40.03;100216.97;4985002;28;8864;-75
2023/10/07 07:56:22;;;;;;;;;29.20;24.00;;;;;15.18;40.89;100219.31;4984904;28;8844;-72
2023/10/07 07:58:52;;;;;;;;;28.80;28.80;;;;;14.83;42.26;100209.75;4985408;28;8876;-72
2023/10/07 08:01:28;;;;;;;;;21.40;20.20;;;;;14.76;42.29;100216.09;4938005;28;8856;-73
2023/10/07 08:04:09;;;;;;;;;31.00;27.60;;;;;14.64;42.26;100207.56;4985278;28;8868;-73
2023/10/07 08:06:38;;;;;;;;;22.40;22.00;;;;;14.54;42.45;100207.84;4984406;28;8846;-76
2023/10/07 08:09:10;;;;;;;;;34.20;32.20;;;;;14.67;42.45;100209.25;5000003;28;8841;-73
2023/10/07 08:11:40;;;;;;;;;38.50;31.75;;;;;14.88;42.31;100214.91;5040042;28;8979;-75
2023/10/07 08:14:10;;;;;;;;;28.20;28.00;;;;;15.02;42.02;100210.09;5042745;28;8884;-72
2023/10/07 08:16:50;;;;;;;;;34.00;32.00;;;;;15.23;40.72;100208.59;5043332;28;8858;-73
2023/10/07 08:19:23;;;;;;;;;31.40;27.80;;;;;15.60;40.80;100211.03;5042906;28;8846;-75
2023/10/07 08:21:53;;;;;;;;;32.00;30.40;;;;;16.05;40.01;100203.41;5002776;28;8999;-73
2023/10/07 08:24:30;;;;;;;;;31.40;28.80;;;;;15.93;39.72;100202.03;5024515;28;9587;-74
2023/10/07 08:27:03;;;;;;;;;30.40;28.00;;;;;16.22;39.82;100203.72;5088854;27;8853;-71
2023/10/07 08:29:33;;;;;;;;;33.50;30.75;;;;;16.12;40.20;100202.28;5128214;27;9614;-72
2023/10/07 08:32:10;;;;;;;;;35.80;31.40;;;;;16.24;39.25;100204.53;5140043;27;9740;-74
2023/10/07 08:34:39;;;;;;;;;39.00;33.50;;;;;16.40;39.33;100203.09;5124602;27;8848;-74
2023/10/07 08:37:14;;;;;;;;;32.00;29.20;;;;;16.71;38.93;100199.38;5073793;27;9574;-69
2023/10/07 08:39:45;;;;;;;;;38.60;33.80;;;;;16.76;37.82;100200.06;5131557;27;8826;-69
2023/10/07 08:42:24;;;;;;;;;28.60;28.00;;;;;17.09;37.94;100198.88;5110269;27;8934;-64
2023/10/07 08:44:58;;;;;;;;;28.60;27.00;;;;;17.12;37.41;100196.13;5131210;27;8837;-65
2023/10/07 08:47:39;;;;;;;;;27.20;27.20;;;;;17.31;37.12;100199.84;5131616;27;8837;-65
2023/10/07 08:50:14;;;;;;;;;27.40;25.80;;;;;17.69;37.47;100199.25;5131283;27;8826;-65
2023/10/07 08:52:44;;;;;;;;;29.40;29.40;;;;;17.83;36.31;100191.56;5130117;27;8957;-70
2023/10/07 08:55:15;;;;;;;;;29.60;26.20;;;;;18.09;35.25;100198.50;5071285;27;8841;-67
2023/10/07 08:57:47;;;;;;;;;27.00;25.60;;;;;18.11;35.38;100188.66;5078574;27;8845;-70
2023/10/07 09:00:21;;;;;;;;;21.20;20.20;;;;;18.01;34.71;100189.97;5129031;27;8827;-67
2023/10/07 09:02:52;;;;;;;;;21.80;20.20;;;;;18.31;35.18;100186.97;5152033;27;8985;-67
2023/10/07 09:05:24;;;;;;;;;21.00;20.60;;;;;18.20;34.60;100192.75;5132617;27;8840;-68
2023/10/07 09:07:54;;;;;;;;;16.00;14.60;;;;;17.82;34.50;100186.34;5137422;27;8829;-68
2023/10/07 09:10:28;;;;;;;;;24.00;23.40;;;;;17.44;35.71;100178.97;5131077;27;9694;-68
2023/10/07 09:13:04;;;;;;;;;19.80;19.80;;;;;17.20;35.85;100183.41;5131694;27;8971;-69
2023/10/07 09:15:36;;;;;;;;;18.40;17.60;;;;;17.46;35.51;100181.56;5131565;27;8854;-67
2023/10/07 09:18:05;;;;;;;;;20.40;19.40;;;;;17.47;35.30;100178.81;5131141;27;8867;-66
2023/10/07 09:20:43;;;;;;;;;20.80;19.20;;;;;17.94;34.57;100183.16;5094735;27;8884;-67
2023/10/07 09:23:16;;;;;;;;;13.80;13.20;;;;;18.21;33.30;100186.47;5130160;27;9685;-67
2023/10/07 09:25:50;;;;;;;;;12.20;11.20;;;;;18.40;33.37;100180.38;5095084;27;8877;-67
2023/10/07 09:28:29;;;;;;;;;15.60;15.60;;;;;18.51;33.82;100178.97;5130963;27;8845;-69
2023/10/07 09:31:05;;;;;;;;;11.00;11.00;;;;;18.82;33.12;100184.75;5130648;27;9633;-66
2023/10/07 09:33:37;;;;;;;;;15.00;14.20;;;;;18.54;32.71;100178.84;5087079;28;8864;-68
2023/10/07 09:38:49;;;;;;;;;12.20;11.40;;;;;19.03;32.36;100172.28;5103195;28;8850;-66
2023/10/07 09:41:32;;;;;;;;;17.00;14.20;;;;;18.70;31.98;100168.34;5073817;28;8896;-68
2023/10/07 09:44:02;;;;;;;;;12.20;12.20;;;;;18.08;34.03;100171.97;5107328;28;8969;-67
2023/10/07 09:46:39;;;;;;;;;17.80;15.60;;;;;18.07;33.51;100167.59;5057116;28;8870;-68
2023/10/07 09:49:14;;;;;;;;;8.20;7.80;;;;;18.53;32.14;100158.50;5061720;28;8888;-68
2023/10/07 09:51:47;;;;;;;;;9.00;9.00;;;;;18.77;30.80;100154.78;5094278;28;8861;-67
2023/10/07 09:54:36;;;;;;;;;8.80;8.80;;;;;19.07;31.37;100158.72;5107228;28;8939;-68
2023/10/07 09:57:24;;;;;;;;;14.40;13.00;;;;;18.91;31.18;100152.38;5107605;28;8870;-68
2023/10/07 10:00:37;;;;;;;;;11.00;11.00;;;;;18.90;32.01;100148.00;5103685;28;8830;-68
2023/10/07 10:03:20;;;;;;;;;13.60;11.80;;;;;19.05;31.87;100149.94;5087278;28;8846;-69
2023/10/07 10:06:04;;;;;;;;;10.80;10.80;;;;;18.56;32.00;100141.50;5127372;27;8856;-67
2023/10/07 10:08:56;;;;;;;;;12.40;11.40;;;;;18.62;32.52;100140.34;5129211;27;8914;-66
2023/10/07 10:11:44;;;;;;;;;10.20;10.20;;;;;18.87;32.24;100135.66;5130154;27;8983;-68
2023/10/07 10:14:29;;;;;;;;;17.60;17.40;;;;;19.12;32.50;100139.84;5130166;27;8826;-69
2023/10/07 10:17:00;;;;;;;;;7.00;7.00;;;;;19.54;32.31;100129.88;5084266;27;8968;-68
2023/10/07 10:19:44;;;;;;;;;8.20;7.40;;;;;19.72;31.63;100128.97;5130347;27;8838;-70
2023/10/07 10:22:13;;;;;;;;;10.00;10.00;;;;;20.01;30.79;100118.63;5128641;27;8971;-67
2023/10/07 10:24:44;;;;;;;;;7.80;7.80;;;;;20.07;28.98;100121.88;5073474;28;8836;-69
2023/10/07 10:27:14;;;;;;;;;11.80;10.80;;;;;20.15;29.11;100115.28;5107849;28;8877;-69
2023/10/07 10:29:55;;;;;;;;;13.00;11.40;;;;;20.19;29.24;100107.00;5091441;28;8830;-66
2023/10/07 10:32:29;;;;;;;;;11.60;10.80;;;;;20.15;29.68;100102.78;5109411;28;8831;-69
2023/10/07 10:35:06;;;;;;;;;15.80;12.00;;;;;20.23;30.09;100105.09;5109424;28;9483;-68
2023/10/07 10:37:37;;;;;;;;;13.80;13.80;;;;;19.94;30.51;100107.44;5113407;27;8879;-67
2023/10/07 10:40:14;;;;;;;;;13.00;12.60;;;;;19.86;31.35;100097.16;5094422;27;9040;-68
2023/10/07 10:42:47;;;;;;;;;13.20;13.00;;;;;19.41;31.30;100090.47;5129548;27;8957;-68
2023/10/07 10:45:21;;;;;;;;;12.20;12.20;;;;;19.03;31.51;100092.34;5129417;27;8822;-67
2023/10/07 10:47:52;;;;;;;;;12.60;11.80;;;;;19.36;31.12;100081.84;5129623;27;8860;-66
2023/10/07 10:50:23;;;;;;;;;14.20;14.20;;;;;19.84;31.21;100069.69;5129935;27;8964;-66
2023/10/07 10:52:54;;;;;;;;;16.60;14.60;;;;;20.16;30.45;100067.16;5128634;27;8846;-68
2023/10/07 10:55:25;;;;;;;;;12.60;11.60;;;;;20.46;29.52;100067.38;5128978;27;8826;-67
2023/10/07 10:57:54;;;;;;;;;17.20;13.00;;;;;20.72;29.54;100059.72;5093493;27;8971;-68
2023/10/07 11:00:25;;;;;;;;;12.00;10.60;;;;;20.94;29.63;100054.09;5129350;27;8949;-67
2023/10/07 11:02:54;;;;;;;;;16.40;14.00;;;;;21.20;28.84;100052.59;5129394;27;8853;-70
2023/10/07 11:05:26;;;;;;;;;14.60;14.20;;;;;21.20;28.97;100047.25;5111550;27;9718;-68
2023/10/07 11:07:56;;;;;;;;;13.60;13.20;;;;;21.53;28.31;100040.03;5109630;27;8891;-68
2023/10/07 11:10:26;;;;;;;;;13.20;13.20;;;;;21.33;27.25;100050.06;5128867;27;8992;-66
2023/10/07 11:12:56;;;;;;;;;15.60;15.00;;;;;21.57;27.97;100036.22;5092723;27;8837;-66
2023/10/07 11:15:29;;;;;;;;;12.00;12.00;;;;;21.87;27.80;100032.69;5129290;27;8817;-68
2023/10/07 11:18:07;;;;;;;;;16.60;15.00;;;;;22.07;27.16;100026.13;5129338;27;8833;-67
2023/10/07 11:20:37;;;;;;;;;13.00;12.40;;;;;22.17;27.52;100028.13;5092132;27;9582;-68
2023/10/07 11:23:08;;;;;;;;;13.60;11.60;;;;;21.86;26.71;100021.13;5127094;27;8854;-67
2023/10/07 11:25:41;;;;;;;;;13.00;11.20;;;;;22.29;26.08;100020.34;5109973;27;8841;-65
2023/10/07 11:28:11;;;;;;;;;10.40;10.40;;;;;22.40;25.64;100023.19;5129103;27;8896;-67
2023/10/07 11:30:46;;;;;;;;;15.20;12.80;;;;;22.10;26.17;100020.59;5089331;28;8839;-68
2023/10/07 11:33:16;;;;;;;;;13.00;13.00;;;;;22.12;26.89;100011.50;5108409;28;8859;-68
2023/10/07 11:35:57;;;;;;;;;16.20;16.20;;;;;21.51;28.36;100017.88;5073064;28;8955;-67
2023/10/07 11:38:26;;;;;;;;;17.40;15.80;;;;;21.31;29.23;100011.00;5115872;27;8846;-65
2023/10/07 11:40:55;;;;;;;;;19.00;15.20;;;;;21.66;28.93;100005.44;5110379;27;8845;-66
2023/10/07 11:43:24;;;;;;;;;14.60;13.60;;;;;21.63;28.94;100007.34;5093439;27;8829;-66
2023/10/07 11:45:55;;;;;;;;;16.00;15.80;;;;;21.04;30.17;100007.16;5092114;27;8932;-71
2023/10/07 11:48:24;;;;;;;;;13.40;12.40;;;;;20.97;29.51;100005.78;5128647;27;8845;-67
2023/10/07 11:50:54;;;;;;;;;16.20;13.00;;;;;21.42;29.09;99989.84;5128400;27;8845;-70
2023/10/07 11:53:25;;;;;;;;;17.20;17.20;;;;;21.71;28.28;99998.84;5127598;27;8844;-68
2023/10/07 11:55:57;;;;;;;;;14.20;13.20;;;;;22.12;28.16;99987.38;5128540;27;8841;-71
2023/10/07 11:58:26;;;;;;;;;11.80;11.80;;;;;22.55;27.74;99984.72;5075477;27;8853;-71
2023/10/07 12:00:57;;;;;;;;;15.00;14.80;;;;;22.41;27.10;99996.31;5128360;27;8865;-70
2023/10/07 12:03:26;;;;;;;;;18.00;17.00;;;;;21.29;28.54;99989.69;5128622;27;8868;-70